Time;durP1;ratioP1;P1;durP2;ratioP2;P2;SDS_P1;SDS_P2;PMS_P1;PMS_P2;Temp;Humidity;BMP_temperature;BMP_pressure;BME280_temperature;BME280_humidity;BME280_pressure;Samples;Min_cycle;Max_cycle;Signal;HPM_P1;HPM_P2
2023/09/22 00:01:21;;;;;;;6.10;3.75;;;;;;;20.11;81.31;94910.75;5069669;28;20174;-70
2023/09/22 00:03:47;;;;;;;7.65;3.80;;;;;;;20.19;80.77;94899.50;5068897;28;20686;-70
2023/09/22 00:06:14;;;;;;;8.70;3.80;;;;;;;20.01;81.09;94892.03;5067181;28;20418;-70
2023/09/22 00:08:39;;;;;;;9.85;3.83;;;;;;;19.86;82.41;94868.00;5068701;28;20911;-70
2023/09/22 00:11:07;;;;;;;7.20;3.92;;;;;;;19.86;84.66;94881.38;5068850;28;20459;-70
2023/09/22 00:13:32;;;;;;;9.48;3.95;;;;;;;19.65;85.77;94872.53;5068261;28;20421;-70
2023/09/22 00:15:58;;;;;;;6.88;4.00;;;;;;;19.76;86.54;94882.16;5069892;28;20251;-70
2023/09/22 00:18:23;;;;;;;10.15;4.40;;;;;;;19.90;87.62;94885.88;5069620;28;20174;-70
2023/09/22 00:20:48;;;;;;;14.95;4.35;;;;;;;19.95;89.06;94879.75;5069468;28;20269;-70
2023/09/22 00:23:15;;;;;;;13.73;4.53;;;;;;;20.01;89.13;94899.25;5069814;28;20573;-70
2023/09/22 00:25:41;;;;;;;12.00;3.75;;;;;;;19.98;87.82;94911.28;5069818;28;20214;-70
2023/09/22 00:28:07;;;;;;;11.55;4.60;;;;;;;19.98;89.32;94891.78;5069595;28;20572;-70
2023/09/22 00:30:33;;;;;;;12.87;5.00;;;;;;;19.88;88.28;94919.31;5068501;28;20421;-70
2023/09/22 00:32:58;;;;;;;7.85;4.13;;;;;;;19.86;90.31;94911.56;5069285;28;20433;-70
2023/09/22 00:35:24;;;;;;;5.90;3.90;;;;;;;19.88;90.90;94909.44;5069539;28;20174;-70
2023/09/22 00:37:50;;;;;;;11.67;4.73;;;;;;;19.80;89.66;94890.47;5069291;28;20417;-70
2023/09/22 00:40:15;;;;;;;7.83;3.23;;;;;;;19.46;87.55;94866.88;5069350;28;21227;-70
2023/09/22 00:42:41;;;;;;;21.50;4.93;;;;;;;19.65;89.79;94917.94;5069520;28;20409;-70
2023/09/22 00:45:07;;;;;;;7.13;4.15;;;;;;;19.63;91.69;94904.06;5069608;28;20193;-70
2023/09/22 00:47:33;;;;;;;9.02;3.50;;;;;;;19.73;91.24;94904.06;5069513;28;20182;-70
2023/09/22 00:49:59;;;;;;;8.68;3.97;;;;;;;19.76;91.08;94823.38;5069168;28;20854;-70
2023/09/22 00:52:25;;;;;;;8.40;4.30;;;;;;;19.67;89.51;94832.22;5069781;28;20607;-70
2023/09/22 00:54:51;;;;;;;10.35;4.47;;;;;;;19.58;90.30;94858.66;5069534;28;20203;-70
2023/09/22 00:57:17;;;;;;;12.85;4.18;;;;;;;19.45;91.68;94848.47;5069700;28;20189;-70
2023/09/22 00:59:45;;;;;;;7.78;3.92;;;;;;;19.62;93.20;94877.63;5067553;28;20566;-70
2023/09/22 01:02:11;;;;;;;9.40;4.35;;;;;;;19.58;94.07;94890.69;5068601;28;20511;-70
2023/09/22 01:04:36;;;;;;;9.40;4.18;;;;;;;19.59;94.86;94900.31;5069537;28;20170;-70
2023/09/22 01:07:02;;;;;;;6.97;4.78;;;;;;;19.59;95.59;94889.63;5071819;28;20182;-70
2023/09/22 01:09:28;;;;;;;9.18;3.90;;;;;;;19.53;95.56;94878.16;5073012;28;20174;-70
2023/09/22 01:11:53;;;;;;;14.40;4.00;;;;;;;19.45;95.81;94877.84;5072750;28;20174;-70
2023/09/22 01:14:19;;;;;;;12.60;4.38;;;;;;;19.43;96.09;94870.09;5072860;28;20198;-70
2023/09/22 01:16:45;;;;;;;9.40;4.20;;;;;;;19.42;96.01;94870.34;5073013;28;20249;-70
2023/09/22 01:19:14;;;;;;;12.63;4.53;;;;;;;19.30;96.01;94870.59;5072608;28;20180;-70
2023/09/22 01:21:39;;;;;;;12.18;4.93;;;;;;;19.29;96.45;94881.53;5072362;28;20795;-70
2023/09/22 01:24:05;;;;;;;9.35;3.78;;;;;;;19.20;96.99;94898.06;5073115;28;20192;-70
2023/09/22 01:26:30;;;;;;;9.20;4.33;;;;;;;18.92;97.82;94893.19;5071966;28;20416;-70
2023/09/22 01:28:56;;;;;;;7.83;4.23;;;;;;;18.64;99.26;94893.63;5071775;28;20909;-70
2023/09/22 01:31:21;;;;;;;9.82;4.82;;;;;;;18.76;99.43;94905.69;5072769;28;20170;-70
2023/09/22 01:33:47;;;;;;;7.55;4.85;;;;;;;18.68;99.38;94876.81;5072440;28;20530;-70
2023/09/22 01:36:15;;;;;;;7.80;4.72;;;;;;;18.52;100.00;94885.78;5071317;28;20401;-70
2023/09/22 01:38:41;;;;;;;12.45;5.00;;;;;;;18.35;100.00;94869.97;5071542;28;20410;-70
2023/09/22 01:41:06;;;;;;;8.60;4.20;;;;;;;18.22;100.00;94869.63;5071187;28;21132;-70
2023/09/22 01:43:32;;;;;;;8.82;3.95;;;;;;;18.35;100.00;94877.97;5072628;28;20529;-70
2023/09/22 01:45:58;;;;;;;8.77;4.90;;;;;;;18.56;100.00;94875.41;5072665;28;20658;-70
2023/09/22 01:48:24;;;;;;;8.05;3.53;;;;;;;18.68;99.95;94863.47;5072525;28;20175;-70
2023/09/22 01:50:49;;;;;;;7.93;3.55;;;;;;;18.77;99.23;94837.09;5072520;28;20179;-70
2023/09/22 01:53:15;;;;;;;12.97;4.17;;;;;;;18.67;99.15;94826.44;5072251;28;20765;-70
2023/09/22 01:55:41;;;;;;;9.07;4.33;;;;;;;18.50;100.00;94823.13;5071686;28;20892;-70
2023/09/22 01:58:08;;;;;;;13.02;5.40;;;;;;;18.43;100.00;94842.81;5071335;28;20500;-70
2023/09/22 02:00:34;;;;;;;9.63;4.18;;;;;;;18.42;100.00;94838.53;5072368;28;20170;-70
2023/09/22 02:03:00;;;;;;;6.90;3.50;;;;;;;18.64;100.00;94849.09;5072402;28;20166;-70
2023/09/22 02:05:26;;;;;;;6.72;3.80;;;;;;;18.75;100.00;94852.59;5072429;28;20223;-70
2023/09/22 02:07:51;;;;;;;9.07;4.47;;;;;;;18.71;99.47;94836.31;5072176;28;20266;-70
2023/09/22 02:10:17;;;;;;;9.05;3.90;;;;;;;18.82;99.33;94848.63;5072081;28;20209;-70
2023/09/22 02:12:45;;;;;;;11.20;4.80;;;;;;;18.70;98.91;94845.34;5071895;28;20429;-70
2023/09/22 02:15:13;;;;;;;6.20;4.55;;;;;;;18.70;98.94;94844.56;5071994;28;20304;-70
2023/09/22 02:17:41;;;;;;;8.13;4.25;;;;;;;18.70;99.43;94839.22;5071288;28;20178;-70
2023/09/22 02:22:43;;;;;;;8.27;4.15;;;;;;;18.72;99.04;94848.56;5071753;28;20229;-70
2023/09/22 02:25:09;;;;;;;7.43;4.25;;;;;;;18.69;98.36;94845.63;5072088;28;20566;-70
2023/09/22 02:27:35;;;;;;;12.73;5.07;;;;;;;18.70;98.62;94845.34;5071582;28;20186;-71
2023/09/22 02:30:00;;;;;;;7.82;3.72;;;;;;;18.62;98.40;94837.88;5071804;28;20229;-70
2023/09/22 02:32:26;;;;;;;11.73;4.30;;;;;;;18.66;98.36;94843.50;5070778;28;20174;-70
2023/09/22 02:34:52;;;;;;;10.18;4.45;;;;;;;18.66;98.75;94841.63;5071736;28;20209;-71
2023/09/22 02:37:17;;;;;;;8.25;4.13;;;;;;;18.67;98.22;94839.75;5070688;28;20315;-70
2023/09/22 02:39:44;;;;;;;8.27;4.53;;;;;;;18.70;97.81;94855.22;5071966;28;20201;-70
2023/09/22 02:42:10;;;;;;;8.30;4.65;;;;;;;18.64;97.72;94856.28;5071447;28;20561;-70
2023/09/22 02:44:35;;;;;;;7.28;4.15;;;;;;;18.55;98.19;94863.94;5071397;28;20175;-70
2023/09/22 02:47:00;;;;;;;9.45;4.03;;;;;;;18.52;98.14;94860.97;5071435;28;20182;-70
2023/09/22 02:49:26;;;;;;;9.18;4.70;;;;;;;18.46;98.00;94863.63;5071485;28;20595;-70
2023/09/22 02:51:52;;;;;;;6.43;3.88;;;;;;;18.44;98.04;94863.09;5071483;28;20178;-70
2023/09/22 02:54:17;;;;;;;10.00;4.60;;;;;;;18.40;97.97;94862.00;5071263;28;20612;-70
2023/09/22 02:56:42;;;;;;;9.75;4.72;;;;;;;18.33;98.13;94863.31;5071242;28;20166;-70
2023/09/22 02:59:08;;;;;;;7.88;4.57;;;;;;;18.16;98.79;94860.00;5071101;28;20185;-71
2023/09/22 03:01:36;;;;;;;7.88;4.50;;;;;;;17.86;100.00;94864.06;5071042;28;20204;-71
2023/09/22 03:04:03;;;;;;;11.00;5.50;;;;;;;17.68;100.00;94867.94;5070203;28;20406;-71
2023/09/22 03:06:28;;;;;;;10.43;4.72;;;;;;;17.45;100.00;94873.56;5071254;28;20189;-71
2023/09/22 03:08:54;;;;;;;11.17;6.00;;;;;;;17.28;100.00;94876.34;5070576;28;20406;-70
2023/09/22 03:11:19;;;;;;;10.25;5.80;;;;;;;17.20;100.00;94878.66;5065696;28;20279;-71
2023/09/22 03:13:45;;;;;;;7.22;4.95;;;;;;;17.35;100.00;94876.13;5068815;28;20193;-70
2023/09/22 03:16:10;;;;;;;12.98;5.53;;;;;;;17.50;100.00;94878.13;5067518;28;20465;-70
2023/09/22 03:18:35;;;;;;;13.70;4.80;;;;;;;17.63;100.00;94875.09;5068207;28;20182;-70
2023/09/22 03:21:02;;;;;;;7.68;4.32;;;;;;;17.75;100.00;94874.91;5069050;28;20571;-70
2023/09/22 03:23:27;;;;;;;7.38;4.57;;;;;;;17.82;100.00;94870.94;5070062;28;20175;-70
2023/09/22 03:25:53;;;;;;;10.20;4.82;;;;;;;17.90;100.00;94875.81;5070496;28;20178;-70
2023/09/22 03:28:19;;;;;;;8.40;5.15;;;;;;;17.94;100.00;94871.59;5069332;28;20280;-70
2023/09/22 03:30:44;;;;;;;8.95;4.82;;;;;;;17.85;100.00;94867.78;5068261;28;20183;-70
2023/09/22 03:33:10;;;;;;;7.15;4.60;;;;;;;17.91;100.00;94871.28;5069692;28;20195;-70
2023/09/22 03:35:38;;;;;;;8.20;5.00;;;;;;;17.94;100.00;94870.78;5069612;28;20245;-70
2023/09/22 03:38:05;;;;;;;9.18;4.78;;;;;;;17.93;100.00;94862.00;5069687;28;20905;-70
2023/09/22 03:40:40;;;;;;;9.07;4.55;;;;;;;17.93;100.00;94863.84;5069970;28;20177;-70
2023/09/22 03:43:06;;;;;;;13.40;5.47;;;;;;;17.82;100.00;94849.66;5069919;28;20174;-70
2023/09/22 03:45:32;;;;;;;7.60;4.68;;;;;;;17.98;100.00;94863.91;5070150;28;20182;-70
2023/09/22 03:47:58;;;;;;;10.35;4.72;;;;;;;17.85;99.60;94843.03;5070154;28;20181;-70
2023/09/22 03:50:23;;;;;;;10.05;5.38;;;;;;;17.97;99.48;94860.44;5070409;28;20170;-69
2023/09/22 03:52:49;;;;;;;8.13;4.57;;;;;;;17.93;98.90;94862.00;5070029;28;20170;-70
2023/09/22 03:55:15;;;;;;;15.30;5.40;;;;;;;17.92;99.23;94859.56;5070338;28;20166;-70
2023/09/22 03:57:41;;;;;;;6.07;4.38;;;;;;;17.90;99.00;94859.06;5070337;28;20202;-70
2023/09/22 04:00:16;;;;;;;10.18;4.70;;;;;;;17.91;98.74;94863.28;5070418;28;21059;-70
2023/09/22 04:02:42;;;;;;;13.50;5.47;;;;;;;17.88;97.98;94858.50;5070224;28;20542;-70
2023/09/22 04:05:08;;;;;;;10.68;4.95;;;;;;;17.82;98.00;94860.31;5069853;28;20265;-70
2023/09/22 04:07:34;;;;;;;14.93;5.20;;;;;;;17.75;98.73;94862.38;5069940;28;20643;-70
2023/09/22 04:10:02;;;;;;;7.05;4.50;;;;;;;17.76;98.75;94871.19;5069843;28;20664;-70
2023/09/22 04:12:27;;;;;;;9.10;4.32;;;;;;;17.66;98.91;94866.56;5069995;28;20710;-70
2023/09/22 04:14:52;;;;;;;7.80;5.45;;;;;;;17.66;99.36;94864.72;5069856;28;20198;-70
2023/09/22 04:17:18;;;;;;;7.25;4.20;;;;;;;17.64;99.14;94874.81;5069859;28;20236;-70
2023/09/22 04:19:43;;;;;;;11.77;5.63;;;;;;;17.61;99.50;94864.66;5069964;28;20635;-70
2023/09/22 04:22:11;;;;;;;10.30;5.13;;;;;;;17.61;99.28;94869.97;5069601;28;20222;-70
2023/09/22 04:24:47;;;;;;;9.38;4.55;;;;;;;17.62;99.25;94868.16;5070016;28;20189;-70
2023/09/22 04:27:14;;;;;;;9.63;5.50;;;;;;;17.47;99.56;94846.72;5069816;28;20178;-70
2023/09/22 04:29:39;;;;;;;8.55;5.25;;;;;;;17.62;99.89;94865.50;5069989;28;20174;-70
2023/09/22 04:32:05;;;;;;;11.00;5.22;;;;;;;17.67;99.68;94868.19;5068501;28;20190;-70
2023/09/22 04:34:32;;;;;;;8.32;5.30;;;;;;;17.57;99.58;94858.22;5069615;28;20256;-70
2023/09/22 04:36:57;;;;;;;8.00;5.18;;;;;;;17.73;99.49;94877.81;5069353;28;20182;-70
2023/09/22 04:39:23;;;;;;;7.38;4.60;;;;;;;17.80;99.38;94880.28;5069511;28;20185;-70
2023/09/22 04:41:48;;;;;;;7.40;4.28;;;;;;;17.88;98.91;94883.28;5071820;28;20170;-70
2023/09/22 04:44:13;;;;;;;9.00;5.22;;;;;;;17.95;98.52;94881.19;5073867;28;20534;-70
2023/09/22 04:46:39;;;;;;;9.63;5.38;;;;;;;18.04;98.11;94889.50;5073853;28;20285;-70
2023/09/22 04:49:06;;;;;;;9.88;5.03;;;;;;;18.09;97.54;94881.53;5073985;28;20174;-70
2023/09/22 04:51:31;;;;;;;8.57;5.50;;;;;;;18.17;97.79;94877.59;5071876;28;20198;-70
2023/09/22 04:53:56;;;;;;;10.02;5.68;;;;;;;18.28;97.43;94882.72;5073481;28;20463;-70
2023/09/22 04:56:22;;;;;;;8.85;5.35;;;;;;;18.43;97.08;94882.00;5073641;28;20236;-70
2023/09/22 04:58:48;;;;;;;11.77;5.50;;;;;;;18.71;96.21;94881.63;5073715;28;20631;-70
2023/09/22 05:01:15;;;;;;;9.98;5.07;;;;;;;19.20;94.14;94886.59;5073502;28;20190;-70
2023/09/22 05:03:40;;;;;;;13.48;6.20;;;;;;;19.91;92.19;94892.84;5072203;28;20558;-70
2023/09/22 05:06:09;;;;;;;7.80;4.65;;;;;;;20.38;88.88;94878.38;5073296;28;20178;-70
2023/09/22 05:08:36;;;;;;;6.82;5.28;;;;;;;20.92;86.74;94901.78;5073371;28;20261;-70
2023/09/22 05:11:07;;;;;;;6.50;3.92;;;;;;;21.31;85.50;94894.63;5073329;28;20174;-70
2023/09/22 05:13:33;;;;;;;12.85;6.68;;;;;;;22.00;82.29;94900.88;5073263;28;20201;-70
2023/09/22 05:16:09;;;;;;;9.85;5.57;;;;;;;22.67;79.10;94899.16;5073239;28;20186;-70
2023/09/22 05:18:34;;;;;;;12.60;6.55;;;;;;;23.43;76.10;94922.44;5073144;28;20201;-70
2023/09/22 05:21:00;;;;;;;18.38;10.10;;;;;;;24.16;72.67;94914.63;5072634;28;20206;-70
2023/09/22 05:23:28;;;;;;;11.27;6.35;;;;;;;24.98;70.83;94922.13;5073225;28;20205;-70
2023/09/22 05:25:54;;;;;;;15.30;8.77;;;;;;;25.54;68.82;94932.53;5072053;28;20244;-70
2023/09/22 05:28:19;;;;;;;19.48;9.93;;;;;;;25.99;66.74;94938.03;5073271;28;20178;-70
2023/09/22 05:30:45;;;;;;;14.90;7.57;;;;;;;26.12;65.36;94946.06;5071646;28;20191;-70
2023/09/22 05:33:11;;;;;;;15.10;7.13;;;;;;;25.89;65.85;94934.47;5072934;28;20202;-70
2023/09/22 05:35:36;;;;;;;21.80;7.22;;;;;;;26.24;65.82;94946.31;5072890;28;20523;-70
2023/09/22 05:38:03;;;;;;;12.48;6.05;;;;;;;26.63;64.85;94951.06;5073030;28;20189;-70
2023/09/22 05:40:32;;;;;;;10.07;5.80;;;;;;;27.26;63.37;94925.59;5072887;28;20259;-70
2023/09/22 05:42:58;;;;;;;12.15;5.55;;;;;;;28.27;60.44;94950.75;5072655;28;20561;-70
2023/09/22 05:45:23;;;;;;;7.82;4.78;;;;;;;28.70;58.33;94953.38;5072785;28;20202;-70
2023/09/22 05:47:48;;;;;;;11.32;5.60;;;;;;;27.96;59.16;94938.13;5072724;28;20182;-70
2023/09/22 05:50:14;;;;;;;11.82;5.57;;;;;;;27.95;60.57;94950.06;5072667;28;20174;-70
2023/09/22 05:52:40;;;;;;;9.90;4.95;;;;;;;28.32;57.74;94951.38;5069726;28;20620;-70
2023/09/22 05:55:06;;;;;;;9.27;5.60;;;;;;;28.72;57.83;94949.22;5072471;28;20208;-70
2023/09/22 05:57:34;;;;;;;10.45;5.10;;;;;;;29.04;56.46;94945.19;5070697;28;20185;-70
2023/09/22 05:59:59;;;;;;;8.75;5.88;;;;;;;28.34;58.06;94937.50;5072336;28;20214;-70
2023/09/22 06:02:25;;;;;;;11.93;5.60;;;;;;;28.44;59.51;94934.47;5072331;28;20202;-70
2023/09/22 06:04:52;;;;;;;10.20;5.95;;;;;;;29.23;56.10;94945.56;5072207;28;20232;-70
2023/09/22 06:07:20;;;;;;;11.07;5.63;;;;;;;28.99;55.38;94944.53;5072187;28;20315;-70
2023/09/22 06:09:45;;;;;;;7.85;5.28;;;;;;;28.38;58.01;94946.56;5070954;28;20182;-70
2023/09/22 06:12:11;;;;;;;15.35;6.40;;;;;;;28.86;56.69;94946.34;5072172;28;20181;-70
2023/09/22 06:14:36;;;;;;;13.48;5.53;;;;;;;29.53;54.87;94946.41;5072005;28;20699;-70
2023/09/22 06:17:02;;;;;;;10.27;5.40;;;;;;;29.81;54.77;94956.75;5071809;28;20174;-70
2023/09/22 06:19:27;;;;;;;12.77;5.55;;;;;;;30.37;53.43;94953.44;5071746;28;20596;-70
2023/09/22 06:21:53;;;;;;;12.38;5.57;;;;;;;30.51;51.75;94936.09;5071589;28;20275;-70
2023/09/22 06:24:20;;;;;;;14.50;5.70;;;;;;;30.55;52.91;94956.84;5072327;28;20933;-70
2023/09/22 06:26:46;;;;;;;14.35;5.85;;;;;;;31.24;51.45;94963.47;5071880;28;20171;-70
2023/09/22 06:29:12;;;;;;;8.00;5.18;;;;;;;32.15;49.41;94959.34;5071601;28;20171;-70
2023/09/22 06:31:37;;;;;;;10.65;5.60;;;;;;;32.56;47.12;94974.56;5071771;28;20558;-70
2023/09/22 06:34:04;;;;;;;11.85;5.95;;;;;;;32.80;46.05;94969.00;5071540;28;20279;-70
2023/09/22 06:36:30;;;;;;;15.52;5.40;;;;;;;32.56;46.97;94967.16;5071702;28;20171;-70
2023/09/22 06:38:55;;;;;;;9.25;5.72;;;;;;;32.33;47.31;94971.56;5071934;28;20583;-70
2023/09/22 06:41:21;;;;;;;17.63;5.93;;;;;;;32.32;47.46;94978.16;5071309;28;20171;-71
2023/09/22 06:43:47;;;;;;;9.80;6.20;;;;;;;32.38;46.68;94971.31;5071527;28;20200;-70
2023/09/22 06:46:14;;;;;;;8.95;5.68;;;;;;;32.29;46.21;94973.41;5071505;28;20636;-70
2023/09/22 06:48:39;;;;;;;11.98;6.85;;;;;;;31.96;46.94;94965.41;5070364;28;20265;-71
2023/09/22 06:51:06;;;;;;;12.77;6.03;;;;;;;31.54;48.32;94981.19;5070932;28;20174;-70
2023/09/22 06:53:34;;;;;;;10.85;6.07;;;;;;;31.27;47.92;94969.03;5071444;28;20214;-70
2023/09/22 06:56:09;;;;;;;13.52;6.68;;;;;;;30.86;50.74;94977.34;5068763;28;20189;-70
2023/09/22 06:58:35;;;;;;;9.60;7.28;;;;;;;30.01;51.73;94980.47;5068418;28;20215;-70
2023/09/22 07:01:11;;;;;;;11.50;7.57;;;;;;;29.61;54.16;94969.19;5071269;28;20178;-70
2023/09/22 07:03:41;;;;;;;13.55;7.18;;;;;;;29.71;53.66;94976.16;5068980;28;20223;-70
2023/09/22 07:06:09;;;;;;;17.77;7.63;;;;;;;29.93;52.52;94973.13;5070981;28;20253;-70
2023/09/22 07:08:34;;;;;;;15.48;7.05;;;;;;;29.88;52.65;94965.97;5070753;28;20635;-71
2023/09/22 07:11:02;;;;;;;10.05;6.00;;;;;;;29.26;51.35;94957.69;5070708;28;20231;-71
2023/09/22 07:13:29;;;;;;;15.50;6.40;;;;;;;29.28;52.59;94964.38;5070789;28;20198;-71
2023/09/22 07:15:55;;;;;;;12.13;5.78;;;;;;;29.12;51.99;94970.66;5068963;28;20564;-70
2023/09/22 07:18:21;;;;;;;8.25;5.32;;;;;;;29.09;52.38;94982.94;5069235;28;20191;-70
2023/09/22 07:20:47;;;;;;;10.13;4.40;;;;;;;29.20;52.25;94983.41;5070371;28;20270;-70
2023/09/22 07:23:12;;;;;;;9.35;4.82;;;;;;;29.34;52.13;94983.97;5069940;28;20218;-70
2023/09/22 07:25:38;;;;;;;9.57;4.25;;;;;;;29.29;51.21;94978.72;5069833;28;20187;-70
2023/09/22 07:28:04;;;;;;;12.95;4.88;;;;;;;29.15;51.03;94984.34;5070502;28;20178;-70
2023/09/22 07:30:29;;;;;;;9.13;3.78;;;;;;;29.17;50.44;94975.91;5070663;28;20301;-70
2023/09/22 07:32:55;;;;;;;9.93;4.82;;;;;;;29.31;50.82;94981.13;5070381;28;20247;-70
2023/09/22 07:35:21;;;;;;;7.80;4.22;;;;;;;29.27;50.37;94978.25;5070395;28;20183;-71
2023/09/22 07:37:46;;;;;;;12.23;4.80;;;;;;;29.46;51.37;94975.97;5070330;28;20174;-70
2023/09/22 07:40:12;;;;;;;9.73;3.88;;;;;;;29.49;47.35;94967.16;5070153;28;20537;-70
2023/09/22 07:42:41;;;;;;;10.13;5.85;;;;;;;29.50;48.32;94973.38;5067661;28;20182;-70
2023/09/22 07:45:07;;;;;;;11.18;4.70;;;;;;;29.63;48.08;94975.06;5070320;28;20178;-70
2023/09/22 07:47:34;;;;;;;8.50;3.65;;;;;;;29.57;47.36;94977.19;5070202;28;20179;-70
2023/09/22 07:50:00;;;;;;;7.05;3.45;;;;;;;28.86;48.52;94957.19;5070444;28;20549;-70
2023/09/22 07:52:26;;;;;;;9.35;4.13;;;;;;;28.59;49.91;94973.81;5070111;28;20264;-70
2023/09/22 07:54:52;;;;;;;10.50;4.28;;;;;;;28.69;50.23;94974.28;5069884;28;20585;-70
2023/09/22 07:57:18;;;;;;;10.70;5.05;;;;;;;28.96;49.77;94970.41;5069066;28;20240;-70
2023/09/22 07:59:43;;;;;;;7.30;3.50;;;;;;;29.33;50.61;94970.72;5068375;28;20182;-70
2023/09/22 08:02:08;;;;;;;7.95;4.70;;;;;;;29.43;49.51;94968.47;5068744;28;20170;-70
2023/09/22 08:04:34;;;;;;;11.25;3.85;;;;;;;29.47;49.06;94974.84;5068689;28;20584;-70
2023/09/22 08:06:59;;;;;;;11.65;4.03;;;;;;;29.23;47.95;94972.69;5068625;28;20281;-69
2023/09/22 08:09:25;;;;;;;7.60;3.90;;;;;;;29.08;47.82;94969.72;5068774;28;20192;-69
2023/09/22 08:11:52;;;;;;;12.55;4.15;;;;;;;28.43;47.97;94941.81;5069474;28;20269;-69
2023/09/22 08:14:18;;;;;;;14.43;3.63;;;;;;;28.21;50.13;94963.63;5069332;28;20205;-70
2023/09/22 08:16:44;;;;;;;7.95;3.15;;;;;;;27.65;50.68;94959.13;5069449;28;20262;-70
2023/09/22 08:19:11;;;;;;;7.15;3.40;;;;;;;27.58;51.50;94958.81;5069919;28;20673;-70
2023/09/22 08:21:39;;;;;;;12.48;4.13;;;;;;;27.50;51.89;94956.84;5069602;28;20226;-70
2023/09/22 08:24:05;;;;;;;10.25;3.78;;;;;;;27.77;53.11;94959.28;5069528;28;20548;-70
2023/09/22 08:26:31;;;;;;;10.77;4.22;;;;;;;27.82;54.34;94959.16;5069673;28;20202;-70
2023/09/22 08:28:57;;;;;;;6.93;3.75;;;;;;;27.92;51.06;94948.03;5069677;28;20264;-70
2023/09/22 08:31:25;;;;;;;11.85;3.92;;;;;;;28.26;51.22;94960.00;5068961;28;20605;-70
2023/09/22 08:33:51;;;;;;;10.48;4.05;;;;;;;28.45;49.22;94958.50;5069489;28;20221;-70
2023/09/22 08:36:16;;;;;;;10.68;4.30;;;;;;;28.35;49.71;94956.16;5069812;28;20205;-70
2023/09/22 08:38:42;;;;;;;11.98;4.45;;;;;;;28.37;50.52;94947.69;5069500;28;20181;-70
2023/09/22 08:41:08;;;;;;;6.40;3.75;;;;;;;28.59;51.49;94944.00;5069043;28;20255;-70
2023/09/22 08:43:35;;;;;;;8.93;4.18;;;;;;;28.78;49.74;94931.72;5069484;28;20178;-71
2023/09/22 08:46:01;;;;;;;10.85;3.78;;;;;;;28.72;49.91;94932.97;5067618;28;20178;-70
2023/09/22 08:48:27;;;;;;;8.93;4.00;;;;;;;28.85;50.60;94928.50;5069303;28;20183;-71
2023/09/22 08:50:53;;;;;;;12.85;3.80;;;;;;;29.11;50.13;94939.25;5069060;28;20545;-70
2023/09/22 08:53:19;;;;;;;10.98;4.30;;;;;;;29.04;49.33;94930.81;5069347;28;20686;-70
2023/09/22 08:55:44;;;;;;;11.00;3.63;;;;;;;28.63;49.97;94915.91;5069214;28;20626;-71
2023/09/22 08:58:10;;;;;;;15.60;3.67;;;;;;;28.48;50.84;94930.00;5069359;28;20237;-70
2023/09/22 09:00:35;;;;;;;9.05;4.32;;;;;;;28.40;53.63;94925.38;5069478;28;20182;-70
2023/09/22 09:03:09;;;;;;;5.97;3.15;;;;;;;28.26;51.69;94919.38;5069264;28;20179;-71
2023/09/22 09:05:36;;;;;;;11.13;3.58;;;;;;;28.15;52.22;94911.53;5069285;28;20178;-71
2023/09/22 09:08:12;;;;;;;17.58;5.00;;;;;;;28.34;53.02;94918.56;5069294;28;20187;-70
2023/09/22 09:10:40;;;;;;;11.07;3.70;;;;;;;28.18;52.90;94910.13;5069047;28;20221;-69
2023/09/22 09:13:06;;;;;;;9.88;3.20;;;;;;;28.55;52.84;94914.03;5069275;28;20209;-69
2023/09/22 09:15:45;;;;;;;14.30;4.32;;;;;;;28.49;51.34;94899.88;5069130;28;20174;-69
2023/09/22 09:18:12;;;;;;;8.02;3.28;;;;;;;28.38;51.02;94898.63;5069200;28;20178;-70
2023/09/22 09:20:42;;;;;;;6.07;3.75;;;;;;;28.29;52.13;94897.84;5069109;28;20257;-70
2023/09/22 09:23:14;;;;;;;9.10;3.55;;;;;;;28.07;52.19;94898.81;5068909;28;20230;-69
2023/09/22 09:25:44;;;;;;;11.18;4.07;;;;;;;28.22;51.90;94892.13;5069284;28;20174;-69
2023/09/22 09:28:11;;;;;;;11.38;3.88;;;;;;;28.39;52.08;94894.00;5071042;28;20186;-69
2023/09/22 09:30:37;;;;;;;11.27;4.03;;;;;;;28.57;51.72;94889.31;5072244;28;20235;-69
2023/09/22 09:33:10;;;;;;;10.02;3.65;;;;;;;28.32;51.66;94888.28;5072005;28;20174;-70
2023/09/22 09:35:39;;;;;;;9.95;3.60;;;;;;;28.36;51.54;94884.63;5071992;28;20212;-69
2023/09/22 09:38:06;;;;;;;12.77;3.75;;;;;;;28.51;50.75;94875.16;5071894;28;20192;-69
2023/09/22 09:40:37;;;;;;;11.60;4.15;;;;;;;28.50;51.74;94871.66;5070096;28;20181;-68
2023/09/22 09:43:05;;;;;;;9.50;4.07;;;;;;;28.62;52.77;94859.38;5070158;28;20217;-69
2023/09/22 09:45:34;;;;;;;9.40;3.40;;;;;;;28.92;51.04;94871.06;5070269;28;20189;-69
2023/09/22 09:48:03;;;;;;;9.20;3.58;;;;;;;28.94;51.23;94872.31;5070686;28;20182;-69
2023/09/22 09:50:33;;;;;;;12.15;3.88;;;;;;;28.78;50.27;94858.53;5070287;28;20182;-69
2023/09/22 09:53:26;;;;;;;10.40;4.53;;;;;;;28.72;51.58;94861.69;5070154;28;20170;-69
2023/09/22 09:56:02;;;;;;;8.60;3.90;;;;;;;28.85;49.91;94860.72;5065560;28;20226;-69
2023/09/22 09:58:31;;;;;;;13.13;4.28;;;;;;;28.80;50.86;94861.69;5071746;28;20650;-69
2023/09/22 10:01:01;;;;;;;10.10;3.70;;;;;;;28.76;50.44;94858.06;5071884;28;20269;-69
2023/09/22 10:03:28;;;;;;;13.32;4.20;;;;;;;28.52;50.02;94855.09;5069972;28;20202;-70
2023/09/22 10:05:56;;;;;;;10.23;3.95;;;;;;;28.47;51.59;94855.25;5071608;28;20193;-71
2023/09/22 10:08:23;;;;;;;11.02;4.13;;;;;;;28.55;51.82;94859.84;5071652;28;20299;-69
2023/09/22 10:10:51;;;;;;;13.25;3.95;;;;;;;28.76;52.13;94859.94;5070934;28;20197;-69
2023/09/22 10:13:17;;;;;;;7.45;3.92;;;;;;;28.78;50.05;94857.72;5071391;28;20289;-69
2023/09/22 10:16:04;;;;;;;9.30;3.78;;;;;;;28.56;50.70;94858.72;5071743;28;20254;-68
2023/09/22 10:18:46;;;;;;;15.80;3.95;;;;;;;28.39;49.80;94862.28;5070274;28;20181;-69
2023/09/22 10:21:43;;;;;;;9.20;3.38;;;;;;;28.16;51.52;94850.09;5071532;28;20234;-69
2023/09/22 10:24:29;;;;;;;13.07;4.20;;;;;;;28.24;51.20;94843.06;5071783;28;20175;-69
2023/09/22 10:26:55;;;;;;;14.45;6.10;;;;;;;28.34;50.76;94845.44;5071703;28;21560;-70
2023/09/22 10:29:33;;;;;;;10.98;3.97;;;;;;;28.35;49.79;94841.59;5071503;28;20555;-69
2023/09/22 10:32:21;;;;;;;15.32;4.25;;;;;;;28.31;49.45;94844.16;5071725;28;20193;-70
2023/09/22 10:35:12;;;;;;;14.43;4.00;;;;;;;28.23;50.78;94833.34;5071577;28;20194;-69
2023/09/22 10:37:57;;;;;;;15.35;3.80;;;;;;;28.31;50.80;94835.22;5071079;28;20178;-70
2023/09/22 10:40:23;;;;;;;10.05;3.60;;;;;;;28.42;49.85;94831.84;5070359;28;20242;-69
2023/09/22 10:42:52;;;;;;;13.10;4.40;;;;;;;28.37;49.38;94833.91;5070945;28;20178;-69
2023/09/22 10:45:25;;;;;;;12.50;3.67;;;;;;;28.36;49.92;94829.66;5070907;28;20174;-69
2023/09/22 10:47:54;;;;;;;16.85;3.63;;;;;;;28.29;49.71;94823.91;5071100;28;20175;-69
2023/09/22 10:50:24;;;;;;;19.42;5.18;;;;;;;28.31;50.04;94810.84;5070926;28;20588;-69
2023/09/22 10:52:52;;;;;;;13.40;4.40;;;;;;;28.29;50.16;94815.78;5070832;28;20239;-69
2023/09/22 10:55:41;;;;;;;14.18;3.65;;;;;;;28.19;48.92;94784.47;5069385;28;20304;-69
2023/09/22 10:58:16;;;;;;;14.63;3.95;;;;;;;28.43;48.22;94795.53;5070533;28;20182;-69
2023/09/22 11:01:08;;;;;;;15.32;4.40;;;;;;;28.53;48.46;94791.66;5069279;28;20197;-69
2023/09/22 11:03:35;;;;;;;10.80;4.18;;;;;;;28.66;48.46;94793.34;5070255;28;20589;-69
2023/09/22 11:06:08;;;;;;;11.25;3.53;;;;;;;28.86;49.51;94795.34;5070628;28;20181;-69
2023/09/22 11:08:34;;;;;;;13.70;4.57;;;;;;;28.99;47.08;94808.97;5070172;28;20231;-69
2023/09/22 11:11:00;;;;;;;15.23;4.25;;;;;;;29.08;46.49;94801.59;5070187;28;20614;-69
2023/09/22 11:13:27;;;;;;;13.98;4.25;;;;;;;29.07;46.39;94789.94;5068987;28;20221;-69
2023/09/22 11:15:57;;;;;;;13.75;3.47;;;;;;;29.11;46.38;94784.66;5070210;28;20207;-69
2023/09/22 11:18:33;;;;;;;17.88;4.60;;;;;;;29.12;47.49;94778.91;5070174;28;20174;-69
2023/09/22 11:21:08;;;;;;;12.20;4.07;;;;;;;29.20;46.17;94767.22;5069761;28;20181;-69
2023/09/22 11:23:38;;;;;;;19.08;4.25;;;;;;;29.03;45.57;94744.84;5070197;28;20271;-69
2023/09/22 11:26:09;;;;;;;12.45;4.72;;;;;;;29.22;46.39;94766.88;5070038;28;20295;-69
2023/09/22 11:28:36;;;;;;;16.88;3.95;;;;;;;29.32;46.32;94760.28;5070075;28;20643;-69
2023/09/22 11:31:08;;;;;;;20.63;4.32;;;;;;;29.43;45.51;94761.47;5069755;28;20243;-69
2023/09/22 11:33:36;;;;;;;17.35;4.00;;;;;;;29.50;44.97;94764.44;5069721;28;20190;-69